Time;durP1;ratioP1;P1;durP2;ratioP2;P2;SDS_P1;SDS_P2;PMS_P1;PMS_P2;Temp;Humidity;BMP_temperature;BMP_pressure;BME280_temperature;BME280_humidity;BME280_pressure;Samples;Min_cycle;Max_cycle;Signal;HPM_P1;HPM_P2
2023/06/23 00:02:15;;;;;;;;;;;;;;;10.32;58.03;96550.56;6263533;28;20303;-73
2023/06/23 00:05:18;;;;;;;;;;;;;;;10.30;58.19;96554.25;6261411;28;19928;-72
2023/06/23 00:08:19;;;;;;;;;;;;;;;10.28;58.56;96553.53;6267258;28;20086;-72
2023/06/23 00:11:25;;;;;;;;;;;;;;;10.23;58.61;96551.19;6266370;28;20029;-73
2023/06/23 00:14:28;;;;;;;;;;;;;;;10.20;58.86;96551.38;6267249;28;19924;-73
2023/06/23 00:17:31;;;;;;;;;;;;;;;10.18;59.03;96550.66;6263648;28;20018;-72
2023/06/23 00:20:32;;;;;;;;;;;;;;;10.14;59.12;96551.81;6266738;28;19924;-74
2023/06/23 00:23:35;;;;;;;;;;;;;;;10.14;59.65;96556.25;6266632;28;19921;-73
2023/06/23 00:26:39;;;;;;;;;;;;;;;10.16;59.43;96549.06;6267452;28;19927;-73
2023/06/23 00:29:43;;;;;;;;;;;;;;;10.18;59.49;96553.28;6268990;28;19920;-72
2023/06/23 00:32:47;;;;;;;;;;;;;;;10.18;59.09;96558.53;6265685;28;19921;-73
2023/06/23 00:35:50;;;;;;;;;;;;;;;10.16;58.52;96555.16;6276462;28;19920;-73
2023/06/23 00:38:52;;;;;;;;;;;;;;;10.12;58.27;96554.53;6276111;28;19931;-72
2023/06/23 00:41:56;;;;;;;;;;;;;;;10.09;58.94;96559.16;6272893;28;19920;-73
2023/06/23 00:44:59;;;;;;;;;;;;;;;10.05;58.54;96555.91;6272362;28;20043;-73
2023/06/23 00:48:04;;;;;;;;;;;;;;;10.02;59.03;96564.00;6271087;28;19920;-73
2023/06/23 00:51:05;;;;;;;;;;;;;;;9.99;58.95;96571.25;6267263;28;19921;-73
2023/06/23 00:54:12;;;;;;;;;;;;;;;9.97;58.49;96565.25;6286732;28;19924;-73
2023/06/23 00:57:15;;;;;;;;;;;;;;;9.99;59.18;96568.59;6279211;28;19921;-74
2023/06/23 01:00:24;;;;;;;;;;;;;;;9.99;59.21;96563.34;6270920;28;19920;-73
2023/06/23 01:03:31;;;;;;;;;;;;;;;9.99;59.31;96576.50;6272317;28;20597;-74
2023/06/23 01:06:37;;;;;;;;;;;;;;;10.00;59.36;96573.78;6269865;28;19920;-74
2023/06/23 01:09:46;;;;;;;;;;;;;;;10.03;59.07;96575.34;6271040;28;20397;-73
2023/06/23 01:12:52;;;;;;;;;;;;;;;10.01;58.88;96583.34;6297094;28;20405;-74
2023/06/23 01:16:01;;;;;;;;;;;;;;;10.03;58.97;96581.44;6279016;28;19928;-72
2023/06/23 01:19:21;;;;;;;;;;;;;;;10.06;59.58;96583.03;6271423;28;19921;-73
2023/06/23 01:22:30;;;;;;;;;;;;;;;10.10;59.32;96587.13;6266221;28;19925;-74
2023/06/23 01:25:37;;;;;;;;;;;;;;;10.15;59.32;96585.03;6268968;28;19924;-73
2023/06/23 01:28:51;;;;;;;;;;;;;;;10.23;58.97;96584.53;6271864;28;19948;-73
2023/06/23 01:32:00;;;;;;;;;;;;;;;10.30;58.70;96589.31;6271018;28;19920;-73
2023/06/23 01:35:06;;;;;;;;;;;;;;;10.39;58.20;96586.97;6269591;28;19932;-74
2023/06/23 01:38:11;;;;;;;;;;;;;;;10.44;57.99;96590.97;6270418;28;19924;-73
2023/06/23 01:41:20;;;;;;;;;;;;;;;10.48;59.10;96583.72;6259725;28;19920;-73
2023/06/23 01:44:23;;;;;;;;;;;;;;;10.49;58.63;96588.84;6255308;28;20414;-73
2023/06/23 01:47:28;;;;;;;;;;;;;;;10.50;58.90;96590.56;6268704;28;19920;-73
2023/06/23 01:50:33;;;;;;;;;;;;;;;10.55;59.11;96595.50;6269765;28;19921;-73
2023/06/23 01:53:37;;;;;;;;;;;;;;;10.60;58.66;96598.66;6270399;28;19974;-73
2023/06/23 01:56:41;;;;;;;;;;;;;;;10.65;58.46;96599.19;6268848;28;19959;-73
2023/06/23 01:59:48;;;;;;;;;;;;;;;10.78;57.92;96599.16;6267332;28;20383;-72
2023/06/23 02:02:51;;;;;;;;;;;;;;;10.95;58.17;96601.44;6283623;28;19943;-73
2023/06/23 02:05:55;;;;;;;;;;;;;;;11.14;57.31;96593.06;6269352;28;19925;-73
2023/06/23 02:09:01;;;;;;;;;;;;;;;11.43;56.84;96605.94;6267635;28;19928;-73
2023/06/23 02:12:06;;;;;;;;;;;;;;;11.82;56.25;96611.88;6270340;28;19929;-74
2023/06/23 02:15:08;;;;;;;;;;;;;;;12.33;55.66;96612.44;6268365;28;19928;-73
2023/06/23 02:18:14;;;;;;;;;;;;;;;12.85;54.91;96612.88;6275824;28;19939;-73
2023/06/23 02:21:16;;;;;;;;;;;;;;;13.36;53.84;96615.03;6274099;28;19921;-73
2023/06/23 02:24:21;;;;;;;;;;;;;;;13.88;53.08;96618.72;6245614;28;19925;-73
2023/06/23 02:27:25;;;;;;;;;;;;;;;14.28;51.73;96614.56;6255643;28;19940;-73
2023/06/23 02:30:32;;;;;;;;;;;;;;;14.37;51.09;96627.84;6269189;28;19924;-74
2023/06/23 02:33:33;;;;;;;;;;;;;;;14.41;51.19;96617.00;6242700;28;19928;-74
2023/06/23 02:36:37;;;;;;;;;;;;;;;14.59;51.12;96624.25;6262508;28;19928;-72
2023/06/23 02:39:43;;;;;;;;;;;;;;;14.88;50.76;96628.03;6269307;28;19920;-73
2023/06/23 02:42:47;;;;;;;;;;;;;;;15.11;50.43;96631.34;6267816;28;19921;-73
2023/06/23 02:45:53;;;;;;;;;;;;;;;15.38;49.39;96630.75;6267407;28;19928;-74
2023/06/23 02:49:01;;;;;;;;;;;;;;;15.41;49.18;96625.19;6268839;28;19921;-73
2023/06/23 02:52:03;;;;;;;;;;;;;;;15.46;49.32;96628.28;6272581;28;19920;-74
2023/06/23 02:55:08;;;;;;;;;;;;;;;15.62;49.08;96633.03;6294829;28;19920;-74
2023/06/23 02:58:16;;;;;;;;;;;;;;;15.71;48.97;96624.31;6271027;28;19924;-73
2023/06/23 03:01:22;;;;;;;;;;;;;;;15.92;48.79;96626.84;6264152;28;19921;-76
2023/06/23 03:04:25;;;;;;;;;;;;;;;16.11;48.57;96628.66;6262776;28;19925;-73
2023/06/23 03:07:29;;;;;;;;;;;;;;;16.37;48.22;96634.25;6261068;28;19916;-74
2023/06/23 03:10:33;;;;;;;;;;;;;;;16.61;48.01;96639.91;6259413;28;19928;-74
2023/06/23 03:13:37;;;;;;;;;;;;;;;16.82;46.42;96638.94;6258712;28;19916;-73
2023/06/23 03:16:43;;;;;;;;;;;;;;;16.83;46.47;96641.44;6260927;28;20055;-74
2023/06/23 03:20:06;;;;;;;;;;;;;;;17.05;46.63;96634.94;6263667;28;19916;-74
2023/06/23 03:23:11;;;;;;;;;;;;;;;17.37;45.80;96639.00;6259322;28;20071;-73
2023/06/23 03:26:15;;;;;;;;;;;;;;;17.57;45.41;96638.91;6259965;28;19927;-73
2023/06/23 03:29:19;;;;;;;;;;;;;;;17.58;45.19;96636.13;6264781;28;19921;-73
2023/06/23 03:32:31;;;;;;;;;;;;;;;17.45;45.04;96641.75;6261629;28;19928;-73
2023/06/23 03:35:35;;;;;;;;;;;;;;;17.18;45.30;96633.78;6260155;28;20382;-73
2023/06/23 03:38:57;;;;;;;;;;;;;;;16.90;45.49;96639.06;6245329;28;19920;-74
2023/06/23 03:42:03;;;;;;;;;;;;;;;16.56;45.75;96636.88;6263081;28;19921;-73
2023/06/23 03:45:08;;;;;;;;;;;;;;;16.17;46.09;96628.94;6267389;28;19920;-73
2023/06/23 03:48:13;;;;;;;;;;;;;;;15.87;46.30;96637.00;6266294;28;19921;-74
2023/06/23 03:51:16;;;;;;;;;;;;;;;15.67;46.98;96626.34;6266742;28;20033;-74
2023/06/23 03:54:22;;;;;;;;;;;;;;;15.55;47.46;96635.41;6251055;28;19921;-74
2023/06/23 03:57:26;;;;;;;;;;;;;;;15.48;46.60;96632.47;6268698;28;20093;-72
2023/06/23 04:00:29;;;;;;;;;;;;;;;15.32;46.41;96631.31;6266891;28;20146;-74
2023/06/23 04:03:35;;;;;;;;;;;;;;;15.28;46.58;96633.34;6268445;28;20004;-74
2023/06/23 04:06:38;;;;;;;;;;;;;;;15.19;46.11;96632.34;6247096;28;20047;-73
2023/06/23 04:09:48;;;;;;;;;;;;;;;15.00;46.75;96637.56;6248591;28;19921;-74
2023/06/23 04:12:53;;;;;;;;;;;;;;;14.92;46.91;96634.75;6252431;28;20378;-75
2023/06/23 04:15:59;;;;;;;;;;;;;;;15.05;46.42;96632.72;6271661;28;19920;-74
2023/06/23 04:19:01;;;;;;;;;;;;;;;15.19;46.15;96632.34;6270802;28;19946;-74
2023/06/23 04:22:06;;;;;;;;;;;;;;;15.36;45.88;96627.38;6271244;28;19990;-75
2023/06/23 04:25:12;;;;;;;;;;;;;;;15.59;45.32;96631.50;6272194;28;20390;-74
2023/06/23 04:28:15;;;;;;;;;;;;;;;15.65;45.17;96633.63;6269150;28;19944;-73
2023/06/23 04:31:21;;;;;;;;;;;;;;;15.66;45.02;96629.97;6269001;28;19920;-73
2023/06/23 04:34:25;;;;;;;;;;;;;;;15.59;45.21;96634.13;6268565;28;19927;-74
2023/06/23 04:37:44;;;;;;;;;;;;;;;15.53;45.32;96629.38;6265012;28;19921;-73
2023/06/23 04:40:51;;;;;;;;;;;;;;;15.57;45.62;96630.81;6267154;28;19920;-73
2023/06/23 04:43:56;;;;;;;;;;;;;;;15.75;45.28;96638.13;6265769;28;19929;-73
2023/06/23 04:47:02;;;;;;;;;;;;;;;15.77;45.29;96630.84;6268723;28;19924;-73
2023/06/23 04:50:07;;;;;;;;;;;;;;;15.71;45.57;96633.09;6265969;28;19924;-73
2023/06/23 04:53:16;;;;;;;;;;;;;;;15.73;45.39;96627.63;6270427;28;20329;-73
2023/06/23 04:56:20;;;;;;;;;;;;;;;15.78;45.45;96632.53;6268813;28;19925;-74
2023/06/23 04:59:23;;;;;;;;;;;;;;;15.93;44.95;96636.47;6263504;28;19924;-75
2023/06/23 05:02:32;;;;;;;;;;;;;;;15.83;44.99;96630.31;6250775;28;20659;-74
2023/06/23 05:05:36;;;;;;;;;;;;;;;15.85;45.03;96631.88;6264696;28;19920;-73
2023/06/23 05:08:41;;;;;;;;;;;;;;;16.10;44.78;96633.09;6266094;28;19921;-73
2023/06/23 05:11:46;;;;;;;;;;;;;;;16.63;43.83;96628.31;6263270;28;19921;-73
2023/06/23 05:14:51;;;;;;;;;;;;;;;17.86;42.45;96628.97;6266885;28;19920;-74
2023/06/23 05:17:57;;;;;;;;;;;;;;;22.81;36.27;96630.66;6263130;28;19921;-73
2023/06/23 05:21:03;;;;;;;;;;;;;;;24.46;34.97;96635.75;6263180;28;19927;-73
2023/06/23 05:24:10;;;;;;;;;;;;;;;23.82;35.92;96632.97;6263307;28;19924;-72
2023/06/23 05:27:15;;;;;;;;;;;;;;;22.65;37.21;96636.19;6267935;28;19920;-74
2023/06/23 05:30:18;;;;;;;;;;;;;;;21.68;36.45;96633.13;6266816;28;20022;-77
2023/06/23 05:33:19;;;;;;;;;;;;;;;20.91;39.37;96631.00;6257972;28;19921;-73
2023/06/23 05:36:26;;;;;;;;;;;;;;;20.50;38.85;96628.34;6264551;28;19924;-69
2023/06/23 05:39:31;;;;;;;;;;;;;;;20.30;38.79;96627.00;6268485;28;20030;-69
2023/06/23 05:42:37;;;;;;;;;;;;;;;19.57;39.16;96631.16;6274870;28;20451;-67
2023/06/23 05:45:40;;;;;;;;;;;;;;;19.48;39.73;96630.28;6268657;28;19920;-69
2023/06/23 05:48:44;;;;;;;;;;;;;;;19.72;39.51;96629.56;6267809;28;19928;-68
2023/06/23 05:51:55;;;;;;;;;;;;;;;20.28;38.51;96629.84;6271211;28;19925;-70
2023/06/23 05:54:59;;;;;;;;;;;;;;;20.96;37.56;96625.16;6252774;28;19928;-70
2023/06/23 05:58:06;;;;;;;;;;;;;;;21.63;36.71;96635.50;6270357;28;19943;-70
2023/06/23 06:01:12;;;;;;;;;;;;;;;22.27;36.19;96625.44;6271016;28;20378;-69
2023/06/23 06:04:14;;;;;;;;;;;;;;;22.73;35.36;96628.09;6270891;28;20029;-71
2023/06/23 06:07:17;;;;;;;;;;;;;;;23.03;34.31;96625.47;6269872;28;20011;-70
2023/06/23 06:10:23;;;;;;;;;;;;;;;23.31;34.32;96631.88;6270593;28;19921;-71
2023/06/23 06:13:27;;;;;;;;;;;;;;;23.52;33.19;96627.59;6270476;28;19920;-70
2023/06/23 06:16:31;;;;;;;;;;;;;;;23.57;34.48;96632.41;6271171;28;19974;-71
2023/06/23 06:19:36;;;;;;;;;;;;;;;23.69;34.15;96628.22;6270635;28;19920;-70
2023/06/23 06:22:38;;;;;;;;;;;;;;;23.71;34.25;96624.38;6268230;28;19955;-70
2023/06/23 06:25:41;;;;;;;;;;;;;;;23.57;34.66;96624.34;6269544;28;19921;-70
2023/06/23 06:28:45;;;;;;;;;;;;;;;23.33;34.66;96617.44;6269815;28;19924;-70
2023/06/23 06:31:51;;;;;;;;;;;;;;;23.21;34.67;96625.97;6270064;28;19920;-70
2023/06/23 06:35:04;;;;;;;;;;;;;;;23.06;33.87;96622.41;6268729;28;20344;-69
2023/06/23 06:38:09;;;;;;;;;;;;;;;23.10;34.05;96626.41;6270221;28;19921;-70
2023/06/23 06:41:15;;;;;;;;;;;;;;;23.59;33.35;96623.16;6269665;28;19920;-69
2023/06/23 06:44:18;;;;;;;;;;;;;;;24.43;32.59;96628.09;6269644;28;19921;-70
2023/06/23 06:47:24;;;;;;;;;;;;;;;26.12;29.46;96620.66;6269624;28;19921;-70
2023/06/23 06:50:26;;;;;;;;;;;;;;;27.38;27.71;96629.88;6277819;28;20005;-70
2023/06/23 06:53:29;;;;;;;;;;;;;;;28.04;25.34;96624.25;6294203;28;20377;-70
2023/06/23 06:56:35;;;;;;;;;;;;;;;29.95;24.67;96638.28;6294538;28;19920;-68
2023/06/23 06:59:39;;;;;;;;;;;;;;;32.44;22.57;96641.78;6270112;28;19921;-70
2023/06/23 07:02:43;;;;;;;;;;;;;;;32.52;21.45;96643.31;6269364;28;19924;-71
2023/06/23 07:05:44;;;;;;;;;;;;;;;30.07;23.16;96643.81;6269118;28;19920;-69
2023/06/23 07:08:46;;;;;;;;;;;;;;;27.51;24.97;96648.75;6288409;28;20354;-70
2023/06/23 07:11:49;;;;;;;;;;;;;;;25.08;27.07;96656.56;6293984;28;19924;-70
2023/06/23 07:14:52;;;;;;;;;;;;;;;23.14;28.86;96662.59;6293869;28;19920;-70
2023/06/23 07:17:54;;;;;;;;;;;;;;;21.75;30.91;96660.88;6293245;28;19974;-70
2023/06/23 07:20:55;;;;;;;;;;;;;;;20.59;32.67;96667.47;6293123;28;19924;-71
2023/06/23 07:23:59;;;;;;;;;;;;;;;19.81;33.80;96669.63;6293638;28;19920;-70
2023/06/23 07:27:02;;;;;;;;;;;;;;;19.38;34.29;96666.94;6284701;28;19920;-69
2023/06/23 07:30:06;;;;;;;;;;;;;;;18.96;35.86;96665.03;6242256;28;20584;-71
2023/06/23 07:33:07;;;;;;;;;;;;;;;18.14;37.17;96685.63;6242481;28;20310;-70
2023/06/23 07:36:11;;;;;;;;;;;;;;;17.52;38.46;96665.94;6255963;28;19924;-69
2023/06/23 07:39:14;;;;;;;;;;;;;;;15.75;41.35;96659.34;6266285;28;19921;-69
2023/06/23 07:42:15;;;;;;;;;;;;;;;15.30;43.91;96659.75;6279937;28;20361;-69
2023/06/23 07:45:21;;;;;;;;;;;;;;;14.73;44.92;96646.09;6292174;28;19920;-69
2023/06/23 07:48:24;;;;;;;;;;;;;;;14.08;46.30;96645.31;6293255;28;20301;-70
2023/06/23 07:51:26;;;;;;;;;;;;;;;13.90;46.19;96637.94;6292216;28;20393;-70
2023/06/23 07:54:29;;;;;;;;;;;;;;;14.32;46.38;96630.06;6292340;28;19926;-70
2023/06/23 07:57:51;;;;;;;;;;;;;;;14.75;45.22;96623.81;6287548;28;19920;-70
2023/06/23 08:00:56;;;;;;;;;;;;;;;15.20;41.97;96636.69;6292842;28;19920;-70
2023/06/23 08:03:58;;;;;;;;;;;;;;;14.76;43.82;96620.19;6292334;28;19927;-70
2023/06/23 08:06:59;;;;;;;;;;;;;;;14.56;44.81;96613.94;6292310;28;19924;-71
2023/06/23 08:10:02;;;;;;;;;;;;;;;15.22;44.06;96610.03;6292768;28;20167;-70
2023/06/23 08:13:04;;;;;;;;;;;;;;;16.51;45.25;96615.22;6292830;28;20390;-70
2023/06/23 08:16:07;;;;;;;;;;;;;;;17.79;45.21;96619.06;6291703;28;19921;-71
2023/06/23 08:19:08;;;;;;;;;;;;;;;18.91;39.83;96613.16;6293405;28;19921;-70
2023/06/23 08:22:14;;;;;;;;;;;;;;;19.82;38.53;96623.28;6293084;28;20082;-70
2023/06/23 08:25:15;;;;;;;;;;;;;;;20.78;35.99;96630.72;6291843;28;20386;-69
2023/06/23 08:28:16;;;;;;;;;;;;;;;21.83;34.47;96631.38;6291533;28;19916;-71
2023/06/23 08:31:19;;;;;;;;;;;;;;;23.09;36.05;96638.16;6268245;28;19920;-69
2023/06/23 08:34:20;;;;;;;;;;;;;;;24.75;35.73;96642.03;6270034;28;19921;-67
2023/06/23 08:37:26;;;;;;;;;;;;;;;27.12;30.01;96642.38;6244748;28;19921;-69
2023/06/23 08:40:29;;;;;;;;;;;;;;;29.22;27.85;96647.22;6260619;28;20358;-67
2023/06/23 08:43:35;;;;;;;;;;;;;;;31.47;25.53;96653.38;6265665;28;19921;-70
2023/06/23 08:46:39;;;;;;;;;;;;;;;33.54;24.33;96659.50;6267393;28;19927;-69
2023/06/23 08:49:41;;;;;;;;;;;;;;;34.86;23.28;96659.44;6264756;28;19931;-69
2023/06/23 08:52:43;;;;;;;;;;;;;;;37.60;21.56;96661.94;6266372;28;19927;-70
2023/06/23 08:55:46;;;;;;;;;;;;;;;40.37;19.39;96663.53;6263691;28;19952;-68
2023/06/23 08:58:52;;;;;;;;;;;;;;;42.87;16.28;96660.22;6264019;28;19920;-69
2023/06/23 09:01:53;;;;;;;;;;;;;;;44.12;13.58;96645.34;6266061;28;19922;-70
2023/06/23 09:04:56;;;;;;;;;;;;;;;44.76;16.18;96647.63;6267250;28;19921;-71
2023/06/23 09:07:58;;;;;;;;;;;;;;;44.77;16.45;96648.44;6265219;28;19916;-71
2023/06/23 09:11:01;;;;;;;;;;;;;;;45.29;15.45;96658.69;6272787;28;20059;-70
2023/06/23 09:14:04;;;;;;;;;;;;;;;45.24;14.93;96654.13;6272385;28;20308;-71
2023/06/23 09:17:05;;;;;;;;;;;;;;;43.38;14.18;96647.91;6253554;28;20013;-70
2023/06/23 09:20:09;;;;;;;;;;;;;;;40.13;15.27;96642.34;6275555;28;19921;-68
2023/06/23 09:23:17;;;;;;;;;;;;;;;36.98;18.43;96633.69;6270740;28;20007;-71
2023/06/23 09:26:21;;;;;;;;;;;;;;;34.92;20.55;96626.69;6269766;28;20405;-69
2023/06/23 09:29:22;;;;;;;;;;;;;;;36.47;15.95;96647.31;6268563;28;20818;-70
2023/06/23 09:32:29;;;;;;;;;;;;;;;35.65;15.46;96646.97;6275229;28;19924;-70
2023/06/23 09:35:35;;;;;;;;;;;;;;;32.50;17.45;96635.41;6241255;28;19925;-69
2023/06/23 09:38:37;;;;;;;;;;;;;;;29.19;20.51;96639.53;6242129;28;19927;-70
2023/06/23 09:41:45;;;;;;;;;;;;;;;26.33;23.21;96635.84;6244738;28;19917;-69
2023/06/23 09:44:49;;;;;;;;;;;;;;;25.18;24.90;96633.88;6244557;28;20363;-69
2023/06/23 09:47:52;;;;;;;;;;;;;;;24.40;26.80;96649.94;6250154;28;20011;-69
2023/06/23 09:50:59;;;;;;;;;;;;;;;23.78;28.90;96653.16;6245692;28;20460;-69
2023/06/23 09:54:02;;;;;;;;;;;;;;;23.06;30.75;96649.25;6243985;28;20293;-63
2023/06/23 09:57:07;;;;;;;;;;;;;;;22.08;36.60;96660.69;6247139;28;19920;-68
2023/06/23 10:00:10;;;;;;;;;;;;;;;20.17;39.08;96655.03;6252312;28;19917;-67
2023/06/23 10:03:11;;;;;;;;;;;;;;;19.92;40.97;96656.81;6250924;28;19928;-67
2023/06/23 10:06:28;;;;;;;;;;;;;;;21.81;42.34;96644.09;6254673;28;19974;-68
2023/06/23 10:09:32;;;;;;;;;;;;;;;23.19;39.78;96646.78;6234814;28;20382;-68
2023/06/23 10:12:39;;;;;;;;;;;;;;;23.84;37.64;96636.31;6227814;28;20302;-68
2023/06/23 10:15:41;;;;;;;;;;;;;;;23.09;37.25;96632.78;6242384;28;20370;-66
2023/06/23 10:18:45;;;;;;;;;;;;;;;22.14;37.87;96636.72;6243091;28;20395;-68
2023/06/23 10:21:47;;;;;;;;;;;;;;;21.88;37.80;96634.38;6244107;28;19928;-68
2023/06/23 10:24:52;;;;;;;;;;;;;;;22.86;37.43;96633.66;6244825;28;19968;-67
2023/06/23 10:27:54;;;;;;;;;;;;;;;24.71;33.34;96643.41;6244389;28;20310;-67
2023/06/23 10:31:02;;;;;;;;;;;;;;;26.02;31.05;96647.19;6249756;28;20293;-66
2023/06/23 10:34:08;;;;;;;;;;;;;;;26.86;29.52;96641.34;6268910;28;19927;-66
2023/06/23 10:37:11;;;;;;;;;;;;;;;27.25;29.34;96642.34;6294693;28;20378;-67
2023/06/23 10:40:24;;;;;;;;;;;;;;;27.84;28.15;96634.34;6292260;28;19943;-67
2023/06/23 10:43:28;;;;;;;;;;;;;;;27.98;26.55;96635.94;6251815;28;20011;-66
2023/06/23 10:46:29;;;;;;;;;;;;;;;27.38;26.53;96635.28;6269778;28;19921;-68
2023/06/23 10:49:32;;;;;;;;;;;;;;;27.51;26.83;96636.06;6270193;28;20027;-67
2023/06/23 10:52:37;;;;;;;;;;;;;;;27.35;26.26;96636.53;6269735;28;20382;-67
2023/06/23 10:55:47;;;;;;;;;;;;;;;26.37;27.51;96636.28;6269287;28;19920;-66
2023/06/23 10:58:49;;;;;;;;;;;;;;;25.09;29.08;96634.00;6268919;28;19928;-67
2023/06/23 11:01:59;;;;;;;;;;;;;;;23.95;30.31;96630.44;6268850;28;19982;-66
2023/06/23 11:05:04;;;;;;;;;;;;;;;23.35;30.71;96628.81;6269392;28;20069;-68
2023/06/23 11:08:09;;;;;;;;;;;;;;;22.61;31.55;96613.44;6269032;28;20428;-67
2023/06/23 11:11:11;;;;;;;;;;;;;;;22.08;32.55;96617.81;6269066;28;19927;-68
2023/06/23 11:14:17;;;;;;;;;;;;;;;21.80;32.64;96618.34;6268574;28;19920;-66
2023/06/23 11:17:23;;;;;;;;;;;;;;;21.43;33.08;96619.84;6268996;28;19920;-66
2023/06/23 11:20:28;;;;;;;;;;;;;;;21.28;33.39;96614.34;6268772;28;19925;-67
2023/06/23 11:23:31;;;;;;;;;;;;;;;21.16;33.79;96617.56;6286448;28;19920;-67
2023/06/23 11:26:32;;;;;;;;;;;;;;;21.24;33.77;96612.19;6275385;28;19920;-68
2023/06/23 11:29:36;;;;;;;;;;;;;;;21.13;34.26;96617.91;6281567;28;20078;-67
2023/06/23 11:32:39;;;;;;;;;;;;;;;21.02;33.77;96621.78;6268694;28;19921;-68
2023/06/23 11:35:42;;;;;;;;;;;;;;;20.75;34.10;96620.31;6268902;28;19921;-67
2023/06/23 11:38:44;;;;;;;;;;;;;;;20.83;34.04;96617.63;6266705;28;19927;-68
2023/06/23 11:41:50;;;;;;;;;;;;;;;20.65;34.07;96609.81;6277552;28;19986;-67
2023/06/23 11:44:56;;;;;;;;;;;;;;;20.41;34.04;96607.97;6268583;28;19920;-67
2023/06/23 11:48:00;;;;;;;;;;;;;;;20.39;34.12;96604.63;6250155;28;19920;-70
2023/06/23 11:51:01;;;;;;;;;;;;;;;20.52;33.95;96604.97;6267841;28;19920;-67
2023/06/23 11:54:03;;;;;;;;;;;;;;;20.69;33.73;96600.44;6267857;28;20471;-68
2023/06/23 11:57:07;;;;;;;;;;;;;;;20.40;33.93;96595.59;6269319;28;19921;-68
2023/06/23 12:00:11;;;;;;;;;;;;;;;20.25;34.31;96602.63;6268565;28;20755;-68
2023/06/23 12:03:13;;;;;;;;;;;;;;;20.26;34.28;96594.44;6268287;28;19921;-67
2023/06/23 12:06:17;;;;;;;;;;;;;;;20.16;34.41;96597.28;6268429;28;19944;-67
2023/06/23 12:09:20;;;;;;;;;;;;;;;19.97;34.82;96602.94;6268348;28;19932;-67
2023/06/23 12:12:21;;;;;;;;;;;;;;;19.92;34.94;96602.56;6267182;28;19981;-66
2023/06/23 12:15:28;;;;;;;;;;;;;;;19.86;35.20;96609.41;6292105;28;19920;-67
2023/06/23 12:18:29;;;;;;;;;;;;;;;19.62;35.10;96601.34;6276545;28;19921;-66
2023/06/23 12:21:30;;;;;;;;;;;;;;;19.33;35.73;96607.88;6265667;28;19955;-68
2023/06/23 12:24:31;;;;;;;;;;;;;;;19.07;35.88;96598.09;6269229;28;19921;-67
2023/06/23 12:27:38;;;;;;;;;;;;;;;18.77;36.51;96596.78;6272717;28;19921;-67
2023/06/23 12:30:43;;;;;;;;;;;;;;;18.57;37.15;96603.25;6273223;28;19921;-69
2023/06/23 12:33:50;;;;;;;;;;;;;;;18.28;37.65;96612.34;6272826;28;19920;-71
2023/06/23 12:37:00;;;;;;;;;;;;;;;18.00;38.63;96602.78;6274336;28;20464;-73
2023/06/23 12:40:04;;;;;;;;;;;;;;;17.87;39.62;96614.66;6252683;28;19921;-72
2023/06/23 12:43:09;;;;;;;;;;;;;;;17.63;39.99;96611.69;6270457;28;19921;-71
2023/06/23 12:46:17;;;;;;;;;;;;;;;17.39;40.62;96621.09;6267136;28;19920;-71
2023/06/23 12:49:37;;;;;;;;;;;;;;;17.06;41.42;96610.03;6237414;28;20011;-72
2023/06/23 12:52:41;;;;;;;;;;;;;;;16.73;42.00;96613.19;6269766;28;20069;-72
2023/06/23 12:55:42;;;;;;;;;;;;;;;16.53;42.35;96613.25;6265167;28;19920;-72
2023/06/23 12:58:46;;;;;;;;;;;;;;;16.29;42.46;96620.81;6271109;28;20310;-72
2023/06/23 13:01:48;;;;;;;;;;;;;;;16.20;42.61;96616.38;6269559;28;19921;-70
2023/06/23 13:04:53;;;;;;;;;;;;;;;16.38;43.00;96612.00;6269112;28;19966;-70
2023/06/23 13:07:54;;;;;;;;;;;;;;;16.27;42.87;96607.69;6268481;28;20302;-70
2023/06/23 13:10:58;;;;;;;;;;;;;;;16.11;42.81;96607.44;6267179;28;19921;-72
2023/06/23 13:14:02;;;;;;;;;;;;;;;16.25;42.68;96608.78;6269549;28;19920;-71
2023/06/23 13:17:04;;;;;;;;;;;;;;;16.42;42.86;96602.78;6266090;28;19967;-67
2023/06/23 13:20:07;;;;;;;;;;;;;;;16.44;43.13;96595.50;6269324;28;19920;-67
2023/06/23 13:23:10;;;;;;;;;;;;;;;16.13;43.78;96595.66;6280773;28;20021;-68
2023/06/23 13:26:11;;;;;;;;;;;;;;;16.12;44.45;96595.81;6271578;28;19921;-66
2023/06/23 13:29:13;;;;;;;;;;;;;;;16.19;44.48;96599.56;6269629;28;20417;-66
2023/06/23 13:32:18;;;;;;;;;;;;;;;16.20;44.76;96595.97;6267415;28;20420;-71
2023/06/23 13:35:19;;;;;;;;;;;;;;;16.05;45.28;96597.34;6266580;28;20051;-67
2023/06/23 13:38:20;;;;;;;;;;;;;;;16.14;45.39;96593.88;6269984;28;19990;-68
2023/06/23 13:41:21;;;;;;;;;;;;;;;16.14;44.90;96591.22;6263948;28;19920;-68
2023/06/23 13:44:22;;;;;;;;;;;;;;;16.13;45.02;96598.31;6271310;28;20003;-67
2023/06/23 13:47:25;;;;;;;;;;;;;;;16.14;44.79;96601.84;6269137;28;20062;-66
2023/06/23 13:50:32;;;;;;;;;;;;;;;16.12;44.83;96594.00;6268999;28;19943;-72
2023/06/23 13:53:38;;;;;;;;;;;;;;;16.19;44.55;96598.75;6271065;28;19920;-72
2023/06/23 13:56:41;;;;;;;;;;;;;;;16.19;44.57;96598.75;6270762;28;19920;-72
2023/06/23 13:59:47;;;;;;;;;;;;;;;16.21;44.42;96591.47;6271893;28;19924;-70
2023/06/23 14:02:53;;;;;;;;;;;;;;;16.28;44.31;96588.13;6270334;28;19974;-68
2023/06/23 14:05:56;;;;;;;;;;;;;;;16.34;43.56;96581.41;6269922;28;19921;-67
2023/06/23 14:09:00;;;;;;;;;;;;;;;16.34;43.57;96586.72;6270328;28;19927;-73
2023/06/23 14:12:06;;;;;;;;;;;;;;;16.35;43.23;96588.41;6271169;28;19921;-65
2023/06/23 14:15:08;;;;;;;;;;;;;;;16.29;43.10;96595.09;6266837;28;19921;-74
2023/06/23 14:18:09;;;;;;;;;;;;;;;16.26;43.04;96589.25;6268816;28;19921;-66
2023/06/23 14:21:13;;;;;;;;;;;;;;;16.21;43.05;96591.47;6268272;28;19927;-68
2023/06/23 14:24:14;;;;;;;;;;;;;;;16.09;43.16;96598.75;6245396;28;19921;-67
2023/06/23 14:27:16;;;;;;;;;;;;;;;16.01;43.33;96591.50;6266580;28;20461;-65
2023/06/23 14:30:17;;;;;;;;;;;;;;;16.16;43.08;96590.09;6265442;28;19943;-65
2023/06/23 14:33:18;;;;;;;;;;;;;;;15.99;43.30;96588.13;6269028;28;19920;-69
2023/06/23 14:36:19;;;;;;;;;;;;;;;15.97;43.28;96584.81;6269871;28;20021;-70
2023/06/23 14:39:20;;;;;;;;;;;;;;;16.09;42.61;96583.66;6264537;28;19928;-70
2023/06/23 14:42:23;;;;;;;;;;;;;;;15.98;42.84;96585.63;6261937;28;20297;-69
2023/06/23 14:45:37;;;;;;;;;;;;;;;15.99;42.74;96584.66;6255505;28;19940;-69
2023/06/23 14:48:42;;;;;;;;;;;;;;;16.05;42.52;96590.25;6263289;28;19993;-69
2023/06/23 14:51:43;;;;;;;;;;;;;;;16.01;42.44;96586.19;6267272;28;20162;-70
2023/06/23 14:54:46;;;;;;;;;;;;;;;16.07;42.20;96590.94;6265229;28;19920;-70
2023/06/23 14:57:50;;;;;;;;;;;;;;;15.93;42.30;96597.50;6263519;28;19921;-69
2023/06/23 15:00:51;;;;;;;;;;;;;;;15.85;42.69;96596.50;6265526;28;19920;-70
2023/06/23 15:03:57;;;;;;;;;;;;;;;15.82;42.69;96587.00;6272170;28;19983;-70
2023/06/23 15:06:59;;;;;;;;;;;;;;;15.80;42.97;96588.16;6254929;28;19921;-70
2023/06/23 15:10:00;;;;;;;;;;;;;;;15.76;43.01;96587.56;6266159;28;19974;-70
2023/06/23 15:13:04;;;;;;;;;;;;;;;15.80;42.97;96589.00;6265206;28;19968;-71
2023/06/23 15:16:08;;;;;;;;;;;;;;;15.74;43.24;96596.63;6264679;28;21611;-70
2023/06/23 15:19:14;;;;;;;;;;;;;;;15.57;43.29;96585.72;6266673;28;19943;-69
2023/06/23 15:22:20;;;;;;;;;;;;;;;15.49;43.59;96583.75;6269314;28;19921;-69
2023/06/23 15:25:26;;;;;;;;;;;;;;;15.45;43.56;96584.97;6267780;28;20386;-71
2023/06/23 15:28:28;;;;;;;;;;;;;;;15.34;43.99;96581.63;6285357;28;19920;-70
2023/06/23 15:31:29;;;;;;;;;;;;;;;15.26;44.00;96580.50;6277430;28;21633;-69
2023/06/23 15:34:31;;;;;;;;;;;;;;;15.18;44.40;96582.97;6265853;28;20391;-70
2023/06/23 15:37:32;;;;;;;;;;;;;;;15.04;44.79;96586.00;6246625;28;19921;-69
2023/06/23 15:40:33;;;;;;;;;;;;;;;14.90;44.84;96589.03;6233875;28;19928;-69
2023/06/23 15:43:37;;;;;;;;;;;;;;;14.80;45.12;96578.38;6242846;28;19921;-70
2023/06/23 15:46:40;;;;;;;;;;;;;;;14.74;45.08;96585.03;6239438;28;19917;-68
2023/06/23 15:49:41;;;;;;;;;;;;;;;14.75;45.02;96592.03;6237551;28;19927;-69
2023/06/23 15:52:43;;;;;;;;;;;;;;;14.72;45.96;96596.72;6236713;28;20070;-69
2023/06/23 15:55:46;;;;;;;;;;;;;;;14.62;45.55;96596.69;6240869;28;21837;-70
2023/06/23 15:58:47;;;;;;;;;;;;;;;14.57;45.61;96588.28;6233479;28;20391;-72
2023/06/23 16:01:48;;;;;;;;;;;;;;;14.56;46.01;96587.47;6245385;28;20067;-73